Time;durP1;ratioP1;P1;durP2;ratioP2;P2;SDS_P1;SDS_P2;PMS_P1;PMS_P2;Temp;Humidity;BMP_temperature;BMP_pressure;BME280_temperature;BME280_humidity;BME280_pressure;Samples;Min_cycle;Max_cycle;Signal;HPM_P1;HPM_P2
2022/03/27 00:02:25;;;;;;;20.77;15.48;;;;;;;;;;5024436;28;20037;-72
2022/03/27 00:04:51;;;;;;;20.38;16.02;;;;;;;;;;5041922;22;20041;-66
2022/03/27 00:07:17;;;;;;;21.20;15.25;;;;;;;;;;5040731;28;20056;-66
2022/03/27 00:09:43;;;;;;;22.67;16.05;;;;;;;;;;5039778;28;20494;-66
2022/03/27 00:12:09;;;;;;;21.17;15.60;;;;;;;;;;5032628;28;20041;-65
2022/03/27 00:14:35;;;;;;;19.83;15.02;;;;;;;;;;5033309;28;20030;-65
2022/03/27 00:17:01;;;;;;;21.80;15.23;;;;;;;;;;5033705;28;20039;-65
2022/03/27 00:19:27;;;;;;;18.75;14.57;;;;;;;;;;5033193;28;20079;-66
2022/03/27 00:21:53;;;;;;;21.70;15.88;;;;;;;;;;5032584;28;20494;-65
2022/03/27 00:24:19;;;;;;;22.30;15.88;;;;;;;;;;5031746;28;20033;-66
2022/03/27 00:26:45;;;;;;;22.58;15.68;;;;;;;;;;5015252;28;20029;-66
2022/03/27 00:29:11;;;;;;;21.85;15.38;;;;;;;;;;5030271;28;20032;-66
2022/03/27 00:31:38;;;;;;;22.85;15.70;;;;;;;;;;5032794;28;20498;-65
2022/03/27 00:34:05;;;;;;;22.52;15.35;;;;;;;;;;5014645;28;20041;-67
2022/03/27 00:36:30;;;;;;;21.77;15.25;;;;;;;;;;5032293;28;20033;-66
2022/03/27 00:38:56;;;;;;;21.52;15.48;;;;;;;;;;5032088;28;20489;-66
2022/03/27 00:41:24;;;;;;;21.42;15.27;;;;;;;;;;5031815;28;20109;-66
2022/03/27 00:43:50;;;;;;;24.20;15.55;;;;;;;;;;5031445;28;20026;-65
2022/03/27 00:46:16;;;;;;;24.77;16.20;;;;;;;;;;5030781;28;20045;-69
2022/03/27 00:48:42;;;;;;;23.77;16.45;;;;;;;;;;5032025;28;20065;-65
2022/03/27 00:51:08;;;;;;;21.23;16.48;;;;;;;;;;5032352;28;20430;-69
2022/03/27 00:53:34;;;;;;;21.77;16.48;;;;;;;;;;5032084;28;20032;-67
2022/03/27 00:56:00;;;;;;;23.35;15.82;;;;;;;;;;5032155;28;20429;-65
2022/03/27 00:58:26;;;;;;;22.55;16.20;;;;;;;;;;5030611;28;20659;-65
2022/03/27 01:00:57;;;;;;;23.77;16.77;;;;;;;;;;5033558;28;20382;-65
2022/03/27 01:03:25;;;;;;;22.25;15.57;;;;;;;;;;5012247;28;20029;-65
2022/03/27 01:05:51;;;;;;;23.33;15.73;;;;;;;;;;5031524;28;20496;-66
2022/03/27 01:09:35;;;;;;;22.60;15.55;;;;;;;;;;5031767;28;20030;-67
2022/03/27 01:11:14;;;;;;;21.25;14.73;;;;;;;;;;5017280;28;20041;-66
2022/03/27 01:13:48;;;;;;;22.80;15.07;;;;;;;;;;5029730;28;20421;-66
2022/03/27 01:16:28;;;;;;;20.83;15.48;;;;;;;;;;5031477;28;20392;-67
2022/03/27 01:18:54;;;;;;;23.85;15.95;;;;;;;;;;5012805;28;20033;-66
2022/03/27 01:21:20;;;;;;;22.88;15.68;;;;;;;;;;5032089;28;20504;-65
2022/03/27 01:23:46;;;;;;;24.42;15.20;;;;;;;;;;5030706;28;20057;-67
2022/03/27 01:26:12;;;;;;;22.42;15.40;;;;;;;;;;5031067;28;20485;-67
2022/03/27 01:28:38;;;;;;;22.55;15.60;;;;;;;;;;5024815;28;20462;-66
2022/03/27 01:31:07;;;;;;;22.88;16.27;;;;;;;;;;5022765;28;20033;-66
2022/03/27 01:33:34;;;;;;;26.45;16.23;;;;;;;;;;5029356;28;20029;-66
2022/03/27 01:36:00;;;;;;;22.27;16.02;;;;;;;;;;5030447;28;20402;-67
2022/03/27 01:38:27;;;;;;;22.30;15.65;;;;;;;;;;5031342;28;20034;-67
2022/03/27 01:40:53;;;;;;;25.48;15.98;;;;;;;;;;5031430;28;20037;-66
2022/03/27 01:43:19;;;;;;;24.95;16.52;;;;;;;;;;5030691;28;20034;-66
2022/03/27 01:45:45;;;;;;;25.25;16.55;;;;;;;;;;5031273;28;20139;-67
2022/03/27 01:48:11;;;;;;;25.77;16.55;;;;;;;;;;5031180;28;20148;-67
2022/03/27 01:50:37;;;;;;;26.15;16.40;;;;;;;;;;5012906;28;20034;-67
2022/03/27 01:53:03;;;;;;;24.50;17.30;;;;;;;;;;5029700;28;20125;-66
2022/03/27 01:55:29;;;;;;;25.95;18.13;;;;;;;;;;5031214;28;20401;-65
2022/03/27 01:57:55;;;;;;;22.83;16.55;;;;;;;;;;5027558;28;20033;-66
2022/03/27 02:00:21;;;;;;;22.98;15.90;;;;;;;;;;5030604;28;20433;-66
2022/03/27 02:02:47;;;;;;;24.77;16.05;;;;;;;;;;5013417;28;20025;-67
2022/03/27 02:05:13;;;;;;;25.75;16.85;;;;;;;;;;5031288;28;20083;-67
2022/03/27 02:07:44;;;;;;;22.83;16.30;;;;;;;;;;5011631;28;20038;-65
2022/03/27 02:10:10;;;;;;;25.75;17.38;;;;;;;;;;5030731;28;20025;-67
2022/03/27 02:12:36;;;;;;;25.65;17.05;;;;;;;;;;5030941;28;20030;-67
2022/03/27 02:15:04;;;;;;;25.63;17.45;;;;;;;;;;5030520;28;20129;-67
2022/03/27 02:17:30;;;;;;;22.42;15.93;;;;;;;;;;5031381;28;20096;-66
2022/03/27 02:19:56;;;;;;;25.45;15.73;;;;;;;;;;5030955;28;20065;-65
2022/03/27 02:22:23;;;;;;;24.80;17.65;;;;;;;;;;5029600;28;20033;-66
2022/03/27 02:24:49;;;;;;;25.33;17.02;;;;;;;;;;5031892;28;20041;-66
2022/03/27 02:27:15;;;;;;;28.27;18.27;;;;;;;;;;5039981;28;20468;-66
2022/03/27 02:29:41;;;;;;;27.77;17.65;;;;;;;;;;5036964;28;20060;-67
2022/03/27 02:32:08;;;;;;;23.05;16.17;;;;;;;;;;5035295;28;20029;-65
2022/03/27 02:34:34;;;;;;;25.17;17.48;;;;;;;;;;5035371;28;20030;-65
2022/03/27 02:37:00;;;;;;;26.42;17.58;;;;;;;;;;5034392;28;20083;-65
2022/03/27 02:39:26;;;;;;;24.73;17.35;;;;;;;;;;5033991;28;20037;-65
2022/03/27 02:41:52;;;;;;;27.50;17.58;;;;;;;;;;5035307;28;20045;-65
2022/03/27 02:44:19;;;;;;;26.83;17.42;;;;;;;;;;5034279;28;20029;-67
2022/03/27 02:46:45;;;;;;;23.90;16.83;;;;;;;;;;5034297;28;20047;-67
2022/03/27 02:49:11;;;;;;;27.42;17.48;;;;;;;;;;5033633;28;20492;-64
2022/03/27 02:51:38;;;;;;;49.72;30.13;;;;;;;;;;5034254;28;20034;-66
2022/03/27 02:54:04;;;;;;;54.42;34.90;;;;;;;;;;5034571;28;20104;-66
2022/03/27 02:56:30;;;;;;;55.83;34.92;;;;;;;;;;5033172;28;20033;-65
2022/03/27 02:58:56;;;;;;;50.40;33.90;;;;;;;;;;5034077;28;20063;-65
2022/03/27 03:01:22;;;;;;;51.22;32.28;;;;;;;;;;5033659;28;20033;-64
2022/03/27 03:03:48;;;;;;;52.15;32.17;;;;;;;;;;5034526;28;20037;-65
2022/03/27 03:06:14;;;;;;;53.88;32.08;;;;;;;;;;5034363;28;20375;-66
2022/03/27 03:08:40;;;;;;;50.20;30.70;;;;;;;;;;5034168;28;20072;-64
2022/03/27 03:11:06;;;;;;;50.65;31.02;;;;;;;;;;5033505;28;20029;-64
2022/03/27 03:13:34;;;;;;;48.33;29.10;;;;;;;;;;5033608;28;20071;-66
2022/03/27 03:16:00;;;;;;;47.42;27.98;;;;;;;;;;5033141;28;20520;-67
2022/03/27 03:18:26;;;;;;;44.83;28.27;;;;;;;;;;5033908;28;20029;-66
2022/03/27 03:20:52;;;;;;;47.45;29.27;;;;;;;;;;5034020;28;20033;-67
2022/03/27 03:23:18;;;;;;;52.33;31.70;;;;;;;;;;5032130;28;20036;-67
2022/03/27 03:25:44;;;;;;;49.97;33.22;;;;;;;;;;5033809;28;20448;-66
2022/03/27 03:28:10;;;;;;;45.38;31.30;;;;;;;;;;5033218;28;20036;-65
2022/03/27 03:30:36;;;;;;;43.30;29.77;;;;;;;;;;5032984;28;20049;-66
2022/03/27 03:33:03;;;;;;;39.85;27.73;;;;;;;;;;5034026;28;20033;-67
2022/03/27 03:35:29;;;;;;;38.10;27.13;;;;;;;;;;5034097;28;20030;-66
2022/03/27 03:37:55;;;;;;;39.28;27.13;;;;;;;;;;5032922;28;20064;-66
2022/03/27 03:40:21;;;;;;;45.57;29.77;;;;;;;;;;5026187;28;20069;-66
2022/03/27 03:42:47;;;;;;;45.03;29.27;;;;;;;;;;5037899;28;20077;-67
2022/03/27 03:45:13;;;;;;;42.80;28.83;;;;;;;;;;5046585;28;20049;-65
2022/03/27 03:47:39;;;;;;;43.37;30.27;;;;;;;;;;5032949;28;20462;-67
2022/03/27 03:50:05;;;;;;;43.07;29.17;;;;;;;;;;5035899;28;20040;-66
2022/03/27 03:52:32;;;;;;;58.60;36.97;;;;;;;;;;5037865;28;20496;-66
2022/03/27 03:54:58;;;;;;;53.28;34.47;;;;;;;;;;5033539;28;20049;-66
2022/03/27 03:57:24;;;;;;;65.47;41.43;;;;;;;;;;5030809;28;20026;-67
2022/03/27 03:59:50;;;;;;;65.73;42.10;;;;;;;;;;5030964;28;20394;-65
2022/03/27 04:02:18;;;;;;;67.03;42.03;;;;;;;;;;5030691;28;20087;-64
2022/03/27 04:04:45;;;;;;;58.47;38.30;;;;;;;;;;5015075;28;20111;-67
2022/03/27 04:07:10;;;;;;;59.27;38.70;;;;;;;;;;5033036;28;20033;-65
2022/03/27 04:09:36;;;;;;;64.03;38.30;;;;;;;;;;5033261;28;20025;-66
2022/03/27 04:12:03;;;;;;;61.43;40.83;;;;;;;;;;5043253;28;20068;-65
2022/03/27 04:14:29;;;;;;;72.63;45.10;;;;;;;;;;5042422;28;20045;-65
2022/03/27 04:16:56;;;;;;;66.50;42.90;;;;;;;;;;5043842;28;20037;-65
2022/03/27 04:19:22;;;;;;;66.77;44.00;;;;;;;;;;5037187;28;20033;-67
2022/03/27 04:21:48;;;;;;;71.30;43.40;;;;;;;;;;5035715;28;20033;-66
2022/03/27 04:24:14;;;;;;;64.10;41.13;;;;;;;;;;5033447;28;20112;-65
2022/03/27 04:26:40;;;;;;;63.37;40.07;;;;;;;;;;5032285;28;20480;-65
2022/03/27 04:29:07;;;;;;;67.30;41.20;;;;;;;;;;5033347;28;20105;-65
2022/03/27 04:31:32;;;;;;;61.67;40.87;;;;;;;;;;5032943;28;20037;-65
2022/03/27 04:33:58;;;;;;;56.07;39.03;;;;;;;;;;5035228;28;20080;-65
2022/03/27 04:36:25;;;;;;;61.53;39.70;;;;;;;;;;5034546;28;20068;-65
2022/03/27 04:38:51;;;;;;;58.13;38.53;;;;;;;;;;5034796;28;20056;-65
2022/03/27 04:41:17;;;;;;;53.93;37.47;;;;;;;;;;5037017;28;20067;-65
2022/03/27 04:43:47;;;;;;;57.83;40.10;;;;;;;;;;5034091;28;20029;-66
2022/03/27 04:46:13;;;;;;;59.57;39.80;;;;;;;;;;5034554;28;20485;-68
2022/03/27 04:48:39;;;;;;;56.90;37.80;;;;;;;;;;5035565;28;20043;-68
2022/03/27 04:51:05;;;;;;;57.10;38.33;;;;;;;;;;5034020;28;20025;-67
2022/03/27 04:53:31;;;;;;;56.13;35.27;;;;;;;;;;5035213;28;20021;-65
2022/03/27 04:55:57;;;;;;;52.53;36.13;;;;;;;;;;5033447;28;20049;-65
2022/03/27 04:58:24;;;;;;;56.97;37.13;;;;;;;;;;5010032;28;20061;-66
2022/03/27 05:00:50;;;;;;;59.93;39.23;;;;;;;;;;5017931;28;20125;-65
2022/03/27 05:03:16;;;;;;;54.60;36.53;;;;;;;;;;5037014;28;20449;-67
2022/03/27 05:05:42;;;;;;;56.57;37.90;;;;;;;;;;5017412;28;20145;-68
2022/03/27 05:08:08;;;;;;;60.33;40.17;;;;;;;;;;5025301;28;20046;-66
2022/03/27 05:10:34;;;;;;;60.33;40.10;;;;;;;;;;5033142;28;20104;-67
2022/03/27 05:13:00;;;;;;;56.57;37.17;;;;;;;;;;5033433;28;20018;-66
2022/03/27 05:15:27;;;;;;;51.67;35.37;;;;;;;;;;5031928;28;20045;-67
2022/03/27 05:17:55;;;;;;;51.13;34.67;;;;;;;;;;5032902;28;20033;-66
2022/03/27 05:20:22;;;;;;;48.70;33.37;;;;;;;;;;5031636;28;20300;-67
2022/03/27 05:22:48;;;;;;;57.30;36.87;;;;;;;;;;5014559;28;20034;-67
2022/03/27 05:25:15;;;;;;;60.03;39.90;;;;;;;;;;5032581;28;20029;-67
2022/03/27 05:27:48;;;;;;;56.53;37.10;;;;;;;;;;5030827;28;20022;-66
2022/03/27 05:30:19;;;;;;;58.27;38.20;;;;;;;;;;5032052;28;20083;-67
2022/03/27 05:32:45;;;;;;;59.17;38.47;;;;;;;;;;5031237;28;20032;-66
2022/03/27 05:35:11;;;;;;;60.80;39.00;;;;;;;;;;5032135;28;20068;-66
2022/03/27 05:37:37;;;;;;;62.27;40.10;;;;;;;;;;5031825;28;20052;-66
2022/03/27 05:40:05;;;;;;;53.17;35.53;;;;;;;;;;5031716;28;20057;-65
2022/03/27 05:42:31;;;;;;;51.25;33.97;;;;;;;;;;5031400;28;20025;-64
2022/03/27 05:44:57;;;;;;;53.30;35.60;;;;;;;;;;5030124;28;20028;-65
2022/03/27 05:47:23;;;;;;;52.13;34.75;;;;;;;;;;5031716;28;20037;-66
2022/03/27 05:49:49;;;;;;;54.30;36.53;;;;;;;;;;5031136;28;20040;-65
2022/03/27 05:52:16;;;;;;;49.08;33.47;;;;;;;;;;5031830;28;20022;-65
2022/03/27 05:54:42;;;;;;;48.90;32.42;;;;;;;;;;5032152;28;20490;-64
2022/03/27 05:57:08;;;;;;;48.40;32.97;;;;;;;;;;5028849;28;20515;-63
2022/03/27 05:59:34;;;;;;;44.95;31.48;;;;;;;;;;5026635;28;20378;-65
2022/03/27 06:02:00;;;;;;;48.30;31.00;;;;;;;;;;5037632;28;20040;-65
2022/03/27 06:04:26;;;;;;;44.15;29.73;;;;;;;;;;5069326;22;20509;-72
2022/03/27 06:06:53;;;;;;;42.67;29.13;;;;;;;;;;5053206;28;20064;-68
2022/03/27 06:09:19;;;;;;;43.20;30.08;;;;;;;;;;5056719;28;20173;-69
2022/03/27 06:11:45;;;;;;;45.05;29.67;;;;;;;;;;5058693;28;20028;-68
2022/03/27 06:14:11;;;;;;;42.83;30.50;;;;;;;;;;5057497;28;20086;-69
2022/03/27 06:16:37;;;;;;;43.03;29.50;;;;;;;;;;5056323;28;20468;-70
2022/03/27 06:19:04;;;;;;;42.17;28.65;;;;;;;;;;5055009;28;20025;-68
2022/03/27 06:21:30;;;;;;;37.40;27.75;;;;;;;;;;5051983;28;20048;-68
2022/03/27 06:23:55;;;;;;;41.15;27.00;;;;;;;;;;5050416;28;20489;-67
2022/03/27 06:26:21;;;;;;;37.95;27.50;;;;;;;;;;5052389;28;20508;-67
2022/03/27 06:28:47;;;;;;;31.25;23.35;;;;;;;;;;5053152;28;20123;-66
2022/03/27 06:31:13;;;;;;;33.38;23.38;;;;;;;;;;5052434;28;20044;-69
2022/03/27 06:33:39;;;;;;;32.42;24.33;;;;;;;;;;5059080;28;20122;-69
2022/03/27 06:36:06;;;;;;;32.10;23.33;;;;;;;;;;5064366;28;20041;-71
2022/03/27 06:38:32;;;;;;;32.30;23.77;;;;;;;;;;5060008;28;20036;-71
2022/03/27 06:40:58;;;;;;;28.48;22.48;;;;;;;;;;5059882;28;20496;-72
2022/03/27 06:43:24;;;;;;;30.60;23.13;;;;;;;;;;5058081;28;20035;-70
2022/03/27 06:45:50;;;;;;;31.17;23.60;;;;;;;;;;5054915;28;20045;-69
2022/03/27 06:48:16;;;;;;;28.08;22.55;;;;;;;;;;5055222;28;20032;-70
2022/03/27 06:50:44;;;;;;;25.02;20.88;;;;;;;;;;5057935;28;20024;-69
2022/03/27 06:53:11;;;;;;;26.45;22.23;;;;;;;;;;5051609;28;20024;-71
2022/03/27 06:55:37;;;;;;;28.02;22.33;;;;;;;;;;5051847;28;20032;-72
2022/03/27 06:58:03;;;;;;;28.95;22.15;;;;;;;;;;5058625;28;20048;-70
2022/03/27 07:03:14;;;;;;;26.80;22.25;;;;;;;;;;5054929;28;20035;-71
2022/03/27 07:05:41;;;;;;;25.35;22.23;;;;;;;;;;5054292;28;20301;-70
2022/03/27 07:08:08;;;;;;;26.17;21.27;;;;;;;;;;5053389;28;20025;-71
2022/03/27 07:10:36;;;;;;;25.00;21.58;;;;;;;;;;5051574;28;20349;-70
2022/03/27 07:13:02;;;;;;;26.83;22.33;;;;;;;;;;5050986;28;20017;-71
2022/03/27 07:15:28;;;;;;;25.95;21.50;;;;;;;;;;5048973;28;20032;-72
2022/03/27 07:17:54;;;;;;;24.17;21.67;;;;;;;;;;5048762;28;20025;-71
2022/03/27 07:20:24;;;;;;;23.45;19.52;;;;;;;;;;5055832;28;20024;-71
2022/03/27 07:22:50;;;;;;;24.30;21.25;;;;;;;;;;5053147;28;20101;-70
2022/03/27 07:25:16;;;;;;;25.80;22.50;;;;;;;;;;5052346;28;20056;-70
2022/03/27 07:27:42;;;;;;;23.27;20.52;;;;;;;;;;5051220;28;20083;-69
2022/03/27 07:30:09;;;;;;;27.42;22.10;;;;;;;;;;5050378;28;20029;-69
2022/03/27 07:32:36;;;;;;;25.48;21.30;;;;;;;;;;5052279;28;20025;-69
2022/03/27 07:35:02;;;;;;;25.63;21.40;;;;;;;;;;5054253;28;20033;-69
2022/03/27 07:37:32;;;;;;;24.92;21.38;;;;;;;;;;5056677;28;20142;-70
2022/03/27 07:39:59;;;;;;;23.13;20.70;;;;;;;;;;5057546;28;20534;-70
2022/03/27 07:42:24;;;;;;;27.38;22.15;;;;;;;;;;5067637;28;20028;-70
2022/03/27 07:44:50;;;;;;;26.67;22.52;;;;;;;;;;5069779;28;20025;-74
2022/03/27 07:47:16;;;;;;;28.95;23.75;;;;;;;;;;5065236;28;20037;-72
2022/03/27 07:49:42;;;;;;;25.73;22.08;;;;;;;;;;5059138;28;20063;-72
2022/03/27 07:52:08;;;;;;;26.50;21.98;;;;;;;;;;5066337;28;20025;-73
2022/03/27 07:54:34;;;;;;;24.92;21.88;;;;;;;;;;5072858;28;20040;-69
2022/03/27 07:57:01;;;;;;;25.80;21.98;;;;;;;;;;5055671;28;20067;-68
2022/03/27 07:59:27;;;;;;;25.48;21.75;;;;;;;;;;5055139;28;20032;-71
2022/03/27 08:01:53;;;;;;;24.42;21.50;;;;;;;;;;5052814;28;20048;-69
2022/03/27 08:04:19;;;;;;;29.75;23.10;;;;;;;;;;5053191;28;20029;-71
2022/03/27 08:06:47;;;;;;;23.77;21.17;;;;;;;;;;5046647;28;20082;-70
2022/03/27 08:09:13;;;;;;;24.90;21.85;;;;;;;;;;5064026;28;20102;-70
2022/03/27 08:11:43;;;;;;;26.67;23.20;;;;;;;;;;5048624;28;20024;-70
2022/03/27 08:14:12;;;;;;;27.17;23.58;;;;;;;;;;5050315;28;20041;-70
2022/03/27 08:16:38;;;;;;;29.02;23.23;;;;;;;;;;5051129;28;20052;-70
2022/03/27 08:19:04;;;;;;;26.48;21.38;;;;;;;;;;5051468;28;20025;-71
2022/03/27 08:21:30;;;;;;;27.40;22.40;;;;;;;;;;5051109;28;20131;-71
2022/03/27 08:23:56;;;;;;;28.42;21.67;;;;;;;;;;5051749;28;20028;-70
2022/03/27 08:29:07;;;;;;;28.88;22.13;;;;;;;;;;5053957;28;20454;-72
2022/03/27 08:31:33;;;;;;;27.40;22.17;;;;;;;;;;5050714;28;20112;-72
2022/03/27 08:34:00;;;;;;;21.65;18.75;;;;;;;;;;5069830;28;20082;-70
2022/03/27 08:36:29;;;;;;;21.27;17.92;;;;;;;;;;5068405;28;20029;-72
2022/03/27 08:38:55;;;;;;;19.92;16.90;;;;;;;;;;5051382;28;20032;-71
2022/03/27 08:41:22;;;;;;;21.92;17.83;;;;;;;;;;5045357;28;20107;-72
2022/03/27 08:43:48;;;;;;;17.88;15.98;;;;;;;;;;5052896;28;20123;-71
2022/03/27 08:46:16;;;;;;;21.08;16.95;;;;;;;;;;5061383;28;20029;-71
2022/03/27 08:48:44;;;;;;;17.52;15.82;;;;;;;;;;5064831;28;20061;-70
2022/03/27 08:51:26;;;;;;;18.58;16.67;;;;;;;;;;5063045;28;20030;-70
2022/03/27 08:53:57;;;;;;;18.40;16.48;;;;;;;;;;5051194;28;20499;-70
2022/03/27 08:56:23;;;;;;;18.30;16.38;;;;;;;;;;5058519;28;20013;-71
2022/03/27 08:58:49;;;;;;;17.33;15.63;;;;;;;;;;5071453;28;20392;-71
2022/03/27 09:01:17;;;;;;;18.05;16.23;;;;;;;;;;5062756;28;20040;-72
2022/03/27 09:03:44;;;;;;;18.02;16.13;;;;;;;;;;5057089;28;20445;-72
2022/03/27 09:06:10;;;;;;;17.80;15.25;;;;;;;;;;5057756;28;20496;-70
2022/03/27 09:08:36;;;;;;;15.40;13.73;;;;;;;;;;5069538;28;20042;-71
2022/03/27 09:11:03;;;;;;;15.27;13.75;;;;;;;;;;5047209;28;20027;-70
2022/03/27 09:13:30;;;;;;;15.48;13.18;;;;;;;;;;5052261;28;20040;-70
2022/03/27 09:15:59;;;;;;;14.50;12.10;;;;;;;;;;5051968;28;20057;-70
2022/03/27 09:18:25;;;;;;;13.15;11.50;;;;;;;;;;5052825;28;20067;-71
2022/03/27 09:20:53;;;;;;;13.85;11.45;;;;;;;;;;5052112;28;20087;-71
2022/03/27 09:23:22;;;;;;;14.77;11.70;;;;;;;;;;5054038;28;20031;-72
2022/03/27 09:26:02;;;;;;;16.02;12.95;;;;;;;;;;5055756;28;20124;-72
2022/03/27 09:28:35;;;;;;;18.15;13.55;;;;;;;;;;5057096;28;20032;-71
2022/03/27 09:31:06;;;;;;;16.20;11.80;;;;;;;;;;5057343;28;20035;-71
2022/03/27 09:33:34;;;;;;;14.15;11.98;;;;;;;;;;5058053;28;20500;-71
2022/03/27 09:36:12;;;;;;;13.93;11.60;;;;;;;;;;5053987;28;20115;-69
2022/03/27 09:38:39;;;;;;;15.95;11.80;;;;;;;;;;5055296;28;20033;-71
2022/03/27 09:41:05;;;;;;;15.15;11.82;;;;;;;;;;5054573;28;20029;-70
2022/03/27 09:43:31;;;;;;;17.17;13.10;;;;;;;;;;5056561;28;20401;-71
2022/03/27 09:45:59;;;;;;;16.52;12.05;;;;;;;;;;5062354;28;20033;-72
2022/03/27 09:48:25;;;;;;;18.25;12.75;;;;;;;;;;5058177;28;20028;-73
2022/03/27 09:50:59;;;;;;;16.05;11.88;;;;;;;;;;5061361;28;20046;-72
2022/03/27 09:53:25;;;;;;;16.90;12.30;;;;;;;;;;5067137;28;20044;-72
2022/03/27 09:56:00;;;;;;;14.40;11.23;;;;;;;;;;5058130;28;20036;-73
2022/03/27 09:58:26;;;;;;;;;;;;;;;;;;5085598;28;20054;-72
2022/03/27 10:01:07;;;;;;;17.55;12.63;;;;;;;;;;5075889;28;19911;-71
2022/03/27 10:03:34;;;;;;;16.45;12.70;;;;;;;;;;5071873;28;20091;-70
2022/03/27 10:06:00;;;;;;;16.75;12.80;;;;;;;;;;5078036;28;20017;-70
2022/03/27 10:08:26;;;;;;;16.60;12.35;;;;;;;;;;5071872;28;20025;-71
2022/03/27 10:10:52;;;;;;;16.23;12.50;;;;;;;;;;5071614;28;20040;-71
2022/03/27 10:13:19;;;;;;;16.63;12.05;;;;;;;;;;5061686;28;20025;-72
2022/03/27 10:15:45;;;;;;;16.63;13.20;;;;;;;;;;5052655;28;20086;-71
2022/03/27 10:18:13;;;;;;;16.95;13.48;;;;;;;;;;5048036;28;20037;-72
2022/03/27 10:20:39;;;;;;;19.65;13.80;;;;;;;;;;5052542;28;20061;-70
2022/03/27 10:23:09;;;;;;;16.45;13.00;;;;;;;;;;5052462;28;20024;-73
2022/03/27 10:25:39;;;;;;;17.65;14.48;;;;;;;;;;5055646;28;20033;-70
2022/03/27 10:28:06;;;;;;;19.38;15.45;;;;;;;;;;5067652;28;20029;-72
2022/03/27 10:30:33;;;;;;;18.83;14.55;;;;;;;;;;5077317;28;20063;-71
2022/03/27 10:33:00;;;;;;;18.73;12.82;;;;;;;;;;5072470;28;20028;-71
2022/03/27 10:35:46;;;;;;;14.50;10.93;;;;;;;;;;5066733;28;20097;-69
2022/03/27 10:38:18;;;;;;;24.65;14.85;;;;;;;;;;5068063;28;20025;-69
2022/03/27 10:41:00;;;;;;;27.20;17.13;;;;;;;;;;5065647;28;20116;-71
2022/03/27 10:43:31;;;;;;;19.60;13.00;;;;;;;;;;5073192;28;20109;-72
2022/03/27 10:46:13;;;;;;;11.60;7.75;;;;;;;;;;5051650;28;20175;-72
2022/03/27 10:48:42;;;;;;;14.65;10.95;;;;;;;;;;5043276;28;20025;-71
2022/03/27 10:51:08;;;;;;;14.05;10.65;;;;;;;;;;5069586;28;20055;-70
2022/03/27 10:53:34;;;;;;;15.38;11.70;;;;;;;;;;5064155;28;20187;-70
2022/03/27 10:56:00;;;;;;;15.93;12.02;;;;;;;;;;5066992;28;20033;-71
2022/03/27 10:58:41;;;;;;;14.90;12.32;;;;;;;;;;5090444;28;20033;-72
2022/03/27 11:01:09;;;;;;;14.95;12.68;;;;;;;;;;5082660;28;20041;-70
2022/03/27 11:03:48;;;;;;;15.55;12.73;;;;;;;;;;5083103;28;20069;-70
2022/03/27 11:06:43;;;;;;;15.55;12.07;;;;;;;;;;5057661;28;20040;-70
2022/03/27 11:09:12;;;;;;;14.07;11.77;;;;;;;;;;5064316;28;20040;-73
2022/03/27 11:11:43;;;;;;;14.30;11.85;;;;;;;;;;5068029;28;20055;-72
2022/03/27 11:14:10;;;;;;;13.43;11.35;;;;;;;;;;5056841;28;20021;-72
2022/03/27 11:16:56;;;;;;;14.90;10.43;;;;;;;;;;5055181;28;20485;-70
2022/03/27 11:19:40;;;;;;;11.15;8.50;;;;;;;;;;5022898;28;20059;-72
2022/03/27 11:22:06;;;;;;;12.63;9.93;;;;;;;;;;5050799;28;20053;-71
2022/03/27 11:24:32;;;;;;;11.95;10.45;;;;;;;;;;5053611;28;20024;-71
2022/03/27 11:26:58;;;;;;;14.68;10.98;;;;;;;;;;5053459;28;20050;-72
2022/03/27 11:29:25;;;;;;;13.00;11.23;;;;;;;;;;5053635;28;20021;-71
2022/03/27 11:32:08;;;;;;;15.02;11.43;;;;;;;;;;5053089;28;20394;-73
2022/03/27 11:34:35;;;;;;;13.52;11.40;;;;;;;;;;5052776;28;20435;-71
2022/03/27 11:37:15;;;;;;;15.35;11.23;;;;;;;;;;5051535;28;20449;-71
2022/03/27 11:39:41;;;;;;;14.68;11.38;;;;;;;;;;5039815;28;20029;-70
2022/03/27 11:42:23;;;;;;;13.60;11.15;;;;;;;;;;5053471;28;20064;-71
2022/03/27 11:45:07;;;;;;;11.80;10.40;;;;;;;;;;5053738;28;20020;-71
2022/03/27 11:47:40;;;;;;;12.40;10.25;;;;;;;;;;5052944;28;20075;-70
2022/03/27 11:50:06;;;;;;;13.10;11.48;;;;;;;;;;5057758;28;20031;-71
2022/03/27 11:52:34;;;;;;;12.93;10.30;;;;;;;;;;5050564;28;20131;-71
2022/03/27 11:55:03;;;;;;;12.80;9.55;;;;;;;;;;5051513;28;20024;-70
2022/03/27 11:57:40;;;;;;;10.68;8.13;;;;;;;;;;5051349;28;20037;-71
2022/03/27 12:00:06;;;;;;;11.32;9.07;;;;;;;;;;5058077;28;20037;-71
2022/03/27 12:02:40;;;;;;;11.82;8.63;;;;;;;;;;5056565;28;20037;-72
2022/03/27 12:05:06;;;;;;;12.57;8.95;;;;;;;;;;5075518;22;20508;-68
2022/03/27 12:07:51;;;;;;;11.80;8.20;;;;;;;;;;5047940;28;20061;-68
2022/03/27 12:10:18;;;;;;;11.75;7.53;;;;;;;;;;5051801;28;20032;-68
2022/03/27 12:12:57;;;;;;;9.90;6.60;;;;;;;;;;5045111;28;20485;-67
2022/03/27 12:15:35;;;;;;;9.38;6.82;;;;;;;;;;5033760;28;20060;-66
2022/03/27 12:18:02;;;;;;;8.10;5.95;;;;;;;;;;5028718;28;20086;-67
2022/03/27 12:20:28;;;;;;;9.32;6.32;;;;;;;;;;5027697;28;20025;-69
2022/03/27 12:22:54;;;;;;;8.90;6.03;;;;;;;;;;5028138;28;20025;-65
2022/03/27 12:25:25;;;;;;;8.88;6.50;;;;;;;;;;5029843;28;20087;-66
2022/03/27 12:30:50;;;;;;;7.15;5.28;;;;;;;;;;5015548;28;20099;-65
2022/03/27 12:33:23;;;;;;;7.13;5.35;;;;;;;;;;5025257;28;20021;-67
2022/03/27 12:36:06;;;;;;;8.27;5.95;;;;;;;;;;5023980;28;20041;-66
2022/03/27 12:38:33;;;;;;;8.38;5.90;;;;;;;;;;5024737;28;20029;-65
2022/03/27 12:40:59;;;;;;;8.38;6.22;;;;;;;;;;5060440;28;20536;-65
2022/03/27 12:43:25;;;;;;;8.40;5.70;;;;;;;;;;5033695;28;20080;-67
2022/03/27 12:45:51;;;;;;;8.30;6.25;;;;;;;;;;5017309;28;20029;-66
2022/03/27 12:48:23;;;;;;;7.93;5.75;;;;;;;;;;5018137;28;20037;-68
2022/03/27 12:50:53;;;;;;;8.63;5.90;;;;;;;;;;5022869;28;20049;-67
2022/03/27 12:53:19;;;;;;;6.95;6.10;;;;;;;;;;5026227;28;20025;-66
2022/03/27 12:55:57;;;;;;;9.98;5.85;;;;;;;;;;5032361;28;20021;-65
2022/03/27 12:58:35;;;;;;;7.85;5.00;;;;;;;;;;5027875;28;20068;-67
2022/03/27 13:01:08;;;;;;;6.32;5.10;;;;;;;;;;5028021;28;20423;-67
2022/03/27 13:03:35;;;;;;;8.48;5.28;;;;;;;;;;5029823;28;20083;-67
2022/03/27 13:06:03;;;;;;;7.78;5.05;;;;;;;;;;5026484;28;20091;-67
2022/03/27 13:08:33;;;;;;;8.27;5.53;;;;;;;;;;5028389;28;20120;-67
2022/03/27 13:11:07;;;;;;;7.40;5.45;;;;;;;;;;5032556;28;20033;-67
2022/03/27 13:13:37;;;;;;;9.52;5.60;;;;;;;;;;5033580;28;20045;-67
2022/03/27 13:16:22;;;;;;;9.35;5.45;;;;;;;;;;5024575;28;20030;-67
2022/03/27 13:19:04;;;;;;;6.78;5.35;;;;;;;;;;5024656;28;20624;-68
2022/03/27 13:21:31;;;;;;;9.20;5.13;;;;;;;;;;5060629;28;20038;-68
2022/03/27 13:23:58;;;;;;;6.13;4.95;;;;;;;;;;5037176;28;20069;-67
2022/03/27 13:26:24;;;;;;;7.15;5.18;;;;;;;;;;5030649;28;20021;-67
2022/03/27 13:28:51;;;;;;;11.13;5.15;;;;;;;;;;5029424;28;20026;-66
2022/03/27 13:31:17;;;;;;;8.32;4.75;;;;;;;;;;5029280;28;20783;-67
2022/03/27 13:33:43;;;;;;;7.43;5.20;;;;;;;;;;5028066;28;20389;-66
2022/03/27 13:36:09;;;;;;;7.43;5.30;;;;;;;;;;5019797;28;20486;-65
2022/03/27 13:38:35;;;;;;;7.15;5.30;;;;;;;;;;5020267;28;20025;-67
2022/03/27 13:43:46;;;;;;;6.85;5.25;;;;;;;;;;5027566;28;20037;-67
2022/03/27 13:46:12;;;;;;;7.25;5.10;;;;;;;;;;5031215;28;20033;-68
2022/03/27 13:48:38;;;;;;;10.35;6.78;;;;;;;;;;5023199;28;20030;-66
2022/03/27 13:51:04;;;;;;;8.40;5.93;;;;;;;;;;5059977;28;20029;-68
2022/03/27 13:53:30;;;;;;;7.57;5.38;;;;;;;;;;5029473;28;20022;-66
2022/03/27 13:55:56;;;;;;;7.85;5.55;;;;;;;;;;5037827;28;20430;-67
2022/03/27 13:58:22;;;;;;;7.10;4.97;;;;;;;;;;5024796;28;20029;-68
2022/03/27 14:00:48;;;;;;;7.38;5.38;;;;;;;;;;5023558;28;20045;-66
2022/03/27 14:03:15;;;;;;;7.38;5.47;;;;;;;;;;5029248;28;20017;-66
2022/03/27 14:05:42;;;;;;;10.00;5.70;;;;;;;;;;5026495;28;20040;-66
2022/03/27 14:08:08;;;;;;;7.78;5.50;;;;;;;;;;5036204;28;20018;-68
2022/03/27 14:10:35;;;;;;;8.00;5.28;;;;;;;;;;5037917;28;20018;-65
2022/03/27 14:13:01;;;;;;;6.28;5.03;;;;;;;;;;5025048;28;20128;-67
2022/03/27 14:15:28;;;;;;;6.35;5.00;;;;;;;;;;5030780;28;20029;-67
2022/03/27 14:17:54;;;;;;;7.45;4.50;;;;;;;;;;5037117;28;20117;-67
2022/03/27 14:20:20;;;;;;;6.45;5.18;;;;;;;;;;5033060;28;20049;-67
2022/03/27 14:22:47;;;;;;;5.75;4.72;;;;;;;;;;5042346;28;20437;-67
2022/03/27 14:25:14;;;;;;;7.25;4.97;;;;;;;;;;5046243;28;20025;-65
2022/03/27 14:27:40;;;;;;;6.93;4.45;;;;;;;;;;5043251;28;20127;-66
2022/03/27 14:30:11;;;;;;;7.88;5.13;;;;;;;;;;5042741;28;20033;-66
2022/03/27 14:32:37;;;;;;;9.77;5.32;;;;;;;;;;5036172;28;20470;-66
2022/03/27 14:35:05;;;;;;;6.20;5.15;;;;;;;;;;5034999;28;20030;-67
2022/03/27 14:37:31;;;;;;;5.97;4.53;;;;;;;;;;5037094;28;20033;-68